Terminal Aerodrome Forecast
Issued by NWS

Home | Current Version | Previous Version | Text Only | Print | Product List | Glossary On
Versions: 1 2 3 4 5 6 7 8 9 10 11 12 13 14 15 16 17 18 19 20
000
FTUS42 KTBW 011100
TAFPIE
TAF
KPIE 011123Z 0112/0212 VRB06KT P6SM VCSH FEW007 SCT012 BKN030
      TEMPO 0112/0114 4SM -SHRA BKN007 OVC012
     FM011500 25006KT P6SM VCTS SCT025CB BKN080
     FM012000 28007KT P6SM SCT035 SCT080 BKN250
     FM020000 VRB05KT P6SM FEW025 SCT250=

USA.gov is the U.S. government's official web portal to all federal, state and local government web resources and services.